Estaca de Bares, Galicia

latitud = 43° 47' 14''N | longitud = 007° 41' 00''W
59 metros sobre el nivel del mar | datos mensuales

Fecha, hora, temperatura, viento dirección y velocidad, humedad y presión.

  • 25-09-2017 00:00:00 | 16.20°C | Oeste |36.00 km/h | 84.00% | 1009.70 hPa
  • 24-09-2017 23:00:00 | 16.90°C | Oeste |30.00 km/h | 81.00% | 1010.20 hPa
  • 24-09-2017 22:00:00 | 16.90°C | Oeste |23.00 km/h | 81.00% | 1009.30 hPa
  • 24-09-2017 21:00:00 | 17.20°C | Oeste |31.00 km/h | 80.00% | 1008.40 hPa
  • 24-09-2017 20:00:00 | 17.90°C | Oeste |33.00 km/h | 78.00% | 1008.50 hPa
  • 24-09-2017 19:00:00 | 18.10°C | Oeste |36.00 km/h | 77.00% | 1008.40 hPa
  • 24-09-2017 18:00:00 | 18.30°C | Oeste |38.00 km/h | 76.00% | 1007.90 hPa
  • 24-09-2017 17:00:00 | 19.00°C | Oeste |33.00 km/h | 75.00% | 1007.90 hPa
  • 24-09-2017 16:00:00 | 18.50°C | Oeste |19.00 km/h | 72.00% | 1007.50 hPa
  • 24-09-2017 15:00:00 | 16.90°C | Oeste |22.00 km/h | 78.00% | 1007.70 hPa
  • 24-09-2017 14:00:00 | 15.40°C | Oeste |18.00 km/h | 81.00% | 1007.80 hPa
  • 24-09-2017 13:00:00 | 16.70°C | Oeste |29.00 km/h | 68.00% | 1008.10 hPa
  • 24-09-2017 12:00:00 | 18.50°C | Sudoeste |8.00 km/h | 44.00% | 1007.90 hPa
  • 24-09-2017 11:00:00 | 18.40°C | Sudoeste |8.00 km/h | 48.00% | 1007.50 hPa
  • 24-09-2017 10:00:00 | 17.90°C | Sudoeste |11.00 km/h | 40.00% | 1007.40 hPa
  • 24-09-2017 09:00:00 | 17.10°C | Sudoeste |3.00 km/h | 47.00% | 1007.10 hPa
  • 24-09-2017 08:00:00 | 16.60°C | Oeste |3.00 km/h | 51.00% | 1007.00 hPa
  • 24-09-2017 07:00:00 | 16.00°C | Oeste |8.00 km/h | 55.00% | 1006.90 hPa
  • 24-09-2017 06:00:00 | 16.40°C | Sudoeste |10.00 km/h | 54.00% | 1007.10 hPa
  • 24-09-2017 05:00:00 | 17.20°C | Sudoeste |14.00 km/h | 43.00% | 1007.20 hPa
  • 24-09-2017 04:00:00 | 16.60°C | Sudoeste |14.00 km/h | 53.00% | 1007.60 hPa
  • 24-09-2017 03:00:00 | 16.50°C | Sudoeste |9.00 km/h | 57.00% | 1008.20 hPa
  • 24-09-2017 02:00:00 | 16.90°C | Sudoeste |9.00 km/h | 60.00% | 1008.20 hPa
  • 24-09-2017 01:00:00 | 17.20°C | Sudoeste |11.00 km/h | 61.00% | 1008.40 hPa